Time;durP1;ratioP1;P1;durP2;ratioP2;P2;SDS_P1;SDS_P2;PMS_P1;PMS_P2;Temp;Humidity;BMP_temperature;BMP_pressure;BME280_temperature;BME280_humidity;BME280_pressure;Samples;Min_cycle;Max_cycle;Signal;HPM_P1;HPM_P2
2023/05/25 00:02:03;;;;;;;14.70;7.67;;;;;;;16.18;93.67;95124.97;5018409;28;20317;-73
2023/05/25 00:04:29;;;;;;;13.30;7.70;;;;;;;16.28;92.63;95125.22;5034432;28;20230;-73
2023/05/25 00:06:55;;;;;;;15.40;8.67;;;;;;;16.45;91.14;95126.13;5018062;28;21289;-73
2023/05/25 00:09:20;;;;;;;14.97;8.67;;;;;;;16.51;90.34;95135.78;5032348;28;20240;-73
2023/05/25 00:11:46;;;;;;;15.30;8.70;;;;;;;16.36;91.29;95135.41;5019725;28;20225;-72
2023/05/25 00:14:11;;;;;;;17.10;9.40;;;;;;;16.22;91.49;95135.88;5026006;28;20291;-73
2023/05/25 00:16:39;;;;;;;14.70;9.00;;;;;;;16.16;91.65;95133.13;5019887;28;20229;-73
2023/05/25 00:19:04;;;;;;;14.10;9.10;;;;;;;16.40;90.06;95133.13;5035557;28;20707;-73
2023/05/25 00:21:32;;;;;;;15.50;8.90;;;;;;;16.43;90.32;95130.81;5016363;28;20288;-74
2023/05/25 00:23:58;;;;;;;13.53;9.13;;;;;;;16.41;89.62;95129.44;5035896;28;20320;-73
2023/05/25 00:26:24;;;;;;;15.57;9.30;;;;;;;16.28;91.24;95132.31;5000916;28;20233;-73
2023/05/25 00:28:50;;;;;;;16.17;9.10;;;;;;;16.27;91.91;95128.06;5017045;28;20230;-73
2023/05/25 00:31:15;;;;;;;16.40;8.70;;;;;;;16.23;92.06;95130.38;5018099;28;20668;-73
2023/05/25 00:33:41;;;;;;;15.40;8.97;;;;;;;16.34;92.27;95126.09;5032642;28;20241;-74
2023/05/25 00:36:07;;;;;;;13.50;8.77;;;;;;;16.24;92.09;95128.53;5017740;28;20311;-73
2023/05/25 00:38:33;;;;;;;13.40;8.97;;;;;;;15.99;93.44;95129.53;5020362;28;20226;-73
2023/05/25 00:40:58;;;;;;;14.83;8.83;;;;;;;16.19;92.56;95124.72;5034146;28;21136;-73
2023/05/25 00:43:24;;;;;;;13.37;8.80;;;;;;;16.35;91.69;95128.53;5034659;28;20288;-73
2023/05/25 00:45:50;;;;;;;13.17;8.43;;;;;;;16.09;93.25;95126.34;5007336;28;20230;-72
2023/05/25 00:48:16;;;;;;;14.30;7.97;;;;;;;15.96;93.57;95130.00;5021601;28;20225;-73
2023/05/25 00:50:42;;;;;;;13.57;8.00;;;;;;;16.05;92.57;95133.09;5034346;28;20840;-75
2023/05/25 00:53:09;;;;;;;18.00;8.60;;;;;;;16.18;93.31;95136.34;5020005;28;20256;-73
2023/05/25 00:55:37;;;;;;;15.80;8.07;;;;;;;16.15;93.05;95141.25;5032882;28;20253;-73
2023/05/25 00:58:03;;;;;;;15.70;8.00;;;;;;;15.80;94.75;95138.56;4999752;28;20237;-73
2023/05/25 01:00:29;;;;;;;13.77;8.00;;;;;;;15.85;94.87;95137.91;5033836;28;20222;-73
2023/05/25 01:02:55;;;;;;;12.43;8.10;;;;;;;15.66;95.35;95147.72;5030281;28;20626;-74
2023/05/25 01:05:20;;;;;;;16.53;8.30;;;;;;;15.54;96.69;95146.88;5015075;28;20226;-74
2023/05/25 01:07:46;;;;;;;16.37;8.60;;;;;;;15.58;96.39;95150.66;5004631;28;20245;-75
2023/05/25 01:10:11;;;;;;;14.13;8.47;;;;;;;15.52;96.13;95148.94;5012519;28;20230;-73
2023/05/25 01:12:37;;;;;;;15.30;8.13;;;;;;;15.47;96.88;95152.25;5014887;28;20668;-74
2023/05/25 01:15:03;;;;;;;15.50;8.40;;;;;;;15.56;96.01;95150.09;5002125;28;20762;-74
2023/05/25 01:17:29;;;;;;;17.20;8.30;;;;;;;15.57;96.18;95150.91;4997421;28;20237;-73
2023/05/25 01:19:57;;;;;;;19.47;8.53;;;;;;;15.45;96.48;95143.72;5016430;28;20682;-74
2023/05/25 01:22:53;;;;;;;14.60;8.20;;;;;;;15.50;96.51;95143.06;5036803;28;20307;-73
2023/05/25 01:25:24;;;;;;;16.57;8.77;;;;;;;15.50;97.00;95143.88;5036181;28;20242;-74
2023/05/25 01:28:24;;;;;;;12.77;8.10;;;;;;;15.41;97.62;95133.81;5026047;28;20246;-73
2023/05/25 01:30:49;;;;;;;14.00;8.63;;;;;;;15.29;98.12;95132.97;5029542;28;20240;-74
2023/05/25 01:33:17;;;;;;;14.30;8.13;;;;;;;14.96;100.00;95130.75;5005325;28;20237;-73
2023/05/25 01:35:42;;;;;;;15.80;8.30;;;;;;;15.17;99.75;95132.91;5014497;28;20225;-74
2023/05/25 01:38:08;;;;;;;16.77;8.40;;;;;;;15.25;99.27;95124.72;5029764;28;20234;-74
2023/05/25 01:40:33;;;;;;;14.13;8.23;;;;;;;15.17;98.82;95129.47;5013593;28;20788;-74
2023/05/25 01:42:59;;;;;;;15.07;8.20;;;;;;;15.03;100.00;95125.41;5032616;28;20755;-73
2023/05/25 01:45:25;;;;;;;18.87;8.87;;;;;;;14.86;100.00;95117.28;5017966;28;20222;-73
2023/05/25 01:48:15;;;;;;;12.37;8.33;;;;;;;14.98;100.00;95123.41;4998228;28;20349;-73
2023/05/25 01:50:47;;;;;;;14.03;8.40;;;;;;;14.82;100.00;95113.50;5025571;28;20622;-72
2023/05/25 01:53:17;;;;;;;16.80;8.77;;;;;;;14.83;100.00;95118.53;5036595;28;20308;-74
2023/05/25 01:55:46;;;;;;;16.23;8.57;;;;;;;14.70;100.00;95112.59;5015800;28;20321;-74
2023/05/25 01:58:13;;;;;;;14.03;8.40;;;;;;;14.70;100.00;95115.25;5019399;28;20225;-74
2023/05/25 02:00:38;;;;;;;13.87;8.57;;;;;;;14.93;100.00;95122.47;5017124;28;20792;-74
2023/05/25 02:03:04;;;;;;;15.80;8.70;;;;;;;14.87;100.00;95126.00;5037089;28;20225;-75
2023/05/25 02:05:29;;;;;;;14.63;8.73;;;;;;;14.77;100.00;95123.88;5018222;28;20236;-74
2023/05/25 02:07:55;;;;;;;16.73;8.83;;;;;;;14.76;100.00;95128.34;4999342;28;20230;-73
2023/05/25 02:10:21;;;;;;;14.93;8.90;;;;;;;14.81;100.00;95132.94;5028912;28;20225;-74
2023/05/25 02:12:46;;;;;;;16.13;8.83;;;;;;;14.97;100.00;95134.19;5017894;28;20702;-73
2023/05/25 02:15:11;;;;;;;15.30;9.03;;;;;;;14.99;99.83;95135.59;4998843;28;20230;-75
2023/05/25 02:17:37;;;;;;;13.97;8.63;;;;;;;15.02;100.00;95132.50;5035093;28;20234;-73
2023/05/25 02:20:07;;;;;;;14.83;8.40;;;;;;;15.03;100.00;95135.94;5016764;28;20341;-74
2023/05/25 02:22:32;;;;;;;15.53;8.50;;;;;;;15.08;99.75;95139.53;5017037;28;20706;-73
2023/05/25 02:24:58;;;;;;;17.20;9.03;;;;;;;15.09;99.80;95135.06;5014601;28;20237;-73
2023/05/25 02:27:23;;;;;;;14.20;8.73;;;;;;;14.94;100.00;95142.53;5019999;28;20658;-73
2023/05/25 02:29:49;;;;;;;14.67;9.20;;;;;;;14.85;100.00;95142.03;5030919;28;20226;-73
2023/05/25 02:32:15;;;;;;;16.17;8.83;;;;;;;14.93;100.00;95149.63;5033529;28;20617;-73
2023/05/25 02:34:40;;;;;;;15.27;8.73;;;;;;;15.03;100.00;95146.47;5015032;28;20611;-73
2023/05/25 02:37:06;;;;;;;14.90;8.80;;;;;;;15.12;99.95;95150.41;5029027;28;20314;-73
2023/05/25 02:39:31;;;;;;;16.53;8.87;;;;;;;14.97;100.00;95160.56;5031130;28;20234;-73
2023/05/25 02:41:57;;;;;;;17.47;9.20;;;;;;;14.79;100.00;95163.97;5010023;28;20249;-73
2023/05/25 02:44:22;;;;;;;14.33;8.47;;;;;;;14.95;100.00;95170.53;5012556;28;20234;-74
2023/05/25 02:46:47;;;;;;;21.93;9.20;;;;;;;14.97;100.00;95166.63;5030274;28;20803;-74
2023/05/25 02:49:13;;;;;;;16.30;8.60;;;;;;;14.89;100.00;95171.38;5021253;28;20351;-73
2023/05/25 02:51:38;;;;;;;15.17;8.77;;;;;;;15.03;100.00;95171.00;5027939;28;20230;-73
2023/05/25 02:54:04;;;;;;;15.70;8.70;;;;;;;14.94;100.00;95168.91;5012249;28;20249;-74
2023/05/25 02:56:30;;;;;;;15.97;8.80;;;;;;;14.95;100.00;95181.06;5013116;28;20250;-73
2023/05/25 02:58:55;;;;;;;16.80;9.17;;;;;;;14.96;99.73;95177.38;5017892;28;20666;-74
2023/05/25 03:01:21;;;;;;;19.53;9.60;;;;;;;14.82;100.00;95176.72;5022745;28;20651;-73
2023/05/25 03:03:50;;;;;;;18.40;9.90;;;;;;;14.66;100.00;95179.94;5027481;28;20257;-73
2023/05/25 03:06:16;;;;;;;19.23;9.77;;;;;;;14.74;100.00;95182.28;5017971;28;20253;-73
2023/05/25 03:08:41;;;;;;;23.43;9.93;;;;;;;14.68;100.00;95181.34;5031147;28;20869;-73
2023/05/25 03:11:07;;;;;;;19.47;9.47;;;;;;;14.54;100.00;95184.31;5012498;28;20226;-73
2023/05/25 03:13:32;;;;;;;17.53;9.30;;;;;;;14.54;100.00;95185.13;5039626;28;20321;-73
2023/05/25 03:15:58;;;;;;;19.57;9.57;;;;;;;14.66;100.00;95179.94;5018684;28;20217;-82
2023/05/25 03:18:23;;;;;;;17.53;9.43;;;;;;;14.40;100.00;95178.34;4999548;28;20299;-82
2023/05/25 03:20:49;;;;;;;19.20;9.67;;;;;;;14.55;100.00;95185.91;5018314;28;20276;-83
2023/05/25 03:23:15;;;;;;;18.00;9.57;;;;;;;14.62;100.00;95182.19;5028933;28;20731;-82
2023/05/25 03:25:40;;;;;;;20.10;10.27;;;;;;;14.55;100.00;95185.91;5018561;28;20311;-83
2023/05/25 03:28:06;;;;;;;20.00;9.93;;;;;;;14.74;100.00;95185.72;5019384;28;20225;-82
2023/05/25 03:30:31;;;;;;;17.90;10.07;;;;;;;14.76;100.00;95191.56;4999711;28;20233;-82
2023/05/25 03:32:57;;;;;;;19.00;10.07;;;;;;;14.72;100.00;95193.06;4998909;28;20695;-82
2023/05/25 03:35:22;;;;;;;16.50;9.93;;;;;;;14.59;100.00;95192.38;5012281;28;20237;-81
2023/05/25 03:37:48;;;;;;;18.97;9.80;;;;;;;14.61;100.00;95193.78;5002409;28;20820;-82
2023/05/25 03:40:13;;;;;;;18.93;10.93;;;;;;;14.77;100.00;95189.75;5014234;28;20777;-85
2023/05/25 03:42:39;;;;;;;20.73;10.30;;;;;;;14.96;100.00;95193.19;5032290;28;20880;-83
2023/05/25 03:45:06;;;;;;;19.77;10.67;;;;;;;15.02;100.00;95193.13;5013504;28;20231;-83
2023/05/25 03:47:31;;;;;;;19.77;11.07;;;;;;;15.04;100.00;95192.91;4985456;28;20231;-83
2023/05/25 03:49:57;;;;;;;21.60;11.37;;;;;;;14.94;100.00;95190.78;5001153;28;20238;-83
2023/05/25 03:52:22;;;;;;;22.93;10.97;;;;;;;14.79;100.00;95188.50;5011286;28;20298;-83
2023/05/25 03:54:48;;;;;;;21.17;10.90;;;;;;;14.84;100.00;95193.13;4994063;28;20226;-83
2023/05/25 03:57:13;;;;;;;20.70;11.63;;;;;;;14.77;100.00;95192.38;5009544;28;20251;-82
2023/05/25 03:59:39;;;;;;;23.73;11.23;;;;;;;14.86;100.00;95198.97;5008892;28;20235;-83
2023/05/25 04:02:04;;;;;;;20.90;11.63;;;;;;;15.06;100.00;95209.31;5014862;28;20233;-82
2023/05/25 04:04:30;;;;;;;22.47;11.50;;;;;;;15.13;100.00;95205.59;5007027;28;20234;-82
2023/05/25 04:06:55;;;;;;;24.20;11.77;;;;;;;15.18;100.00;95210.19;5017332;28;20226;-83
2023/05/25 04:09:21;;;;;;;22.47;11.63;;;;;;;15.32;100.00;95207.19;5002824;28;20265;-83
2023/05/25 04:11:46;;;;;;;20.57;11.83;;;;;;;15.41;100.00;95212.94;5017289;28;20584;-84
2023/05/25 04:14:12;;;;;;;23.10;12.47;;;;;;;15.50;100.00;95224.84;4991898;28;20222;-82
2023/05/25 04:16:39;;;;;;;27.60;13.07;;;;;;;15.56;99.92;95221.31;4985176;28;20364;-82
2023/05/25 04:19:05;;;;;;;26.40;14.33;;;;;;;15.68;96.78;95222.19;5013153;28;20273;-81
2023/05/25 04:21:31;;;;;;;35.33;15.10;;;;;;;15.79;96.29;95220.59;5015121;28;20226;-82
2023/05/25 04:23:56;;;;;;;27.40;14.20;;;;;;;15.78;98.17;95219.81;5016687;28;20226;-82
2023/05/25 04:26:23;;;;;;;30.27;15.73;;;;;;;15.94;93.95;95218.38;5013992;28;21593;-84
2023/05/25 04:28:49;;;;;;;25.93;15.23;;;;;;;16.01;94.45;95225.16;5017295;28;20280;-84
2023/05/25 04:31:14;;;;;;;26.57;14.53;;;;;;;15.99;91.82;95232.50;4994061;28;20249;-83
2023/05/25 04:33:40;;;;;;;26.03;13.23;;;;;;;15.98;91.20;95232.72;5011307;28;20234;-81
2023/05/25 04:36:05;;;;;;;21.03;12.50;;;;;;;16.07;91.86;95244.59;5007745;28;20227;-83
2023/05/25 04:38:32;;;;;;;19.63;11.73;;;;;;;16.13;90.08;95244.50;5023259;28;20227;-82
2023/05/25 04:40:58;;;;;;;20.83;11.63;;;;;;;16.08;90.97;95244.34;5024750;28;20237;-83
2023/05/25 04:43:24;;;;;;;22.27;11.53;;;;;;;16.14;91.26;95243.44;5019889;28;20798;-82
2023/05/25 04:45:51;;;;;;;19.37;11.00;;;;;;;16.16;90.50;95246.69;5003209;28;20322;-83
2023/05/25 04:48:16;;;;;;;21.80;10.67;;;;;;;16.23;89.99;95243.13;5012815;28;21282;-78
2023/05/25 04:50:42;;;;;;;20.87;11.33;;;;;;;16.31;88.97;95243.59;5011185;28;20234;-82
2023/05/25 04:53:07;;;;;;;19.43;11.03;;;;;;;16.46;88.89;95236.06;5016281;28;20657;-82
2023/05/25 04:55:33;;;;;;;20.53;11.47;;;;;;;16.47;89.47;95228.94;5002567;28;20257;-81
2023/05/25 04:57:58;;;;;;;19.57;11.00;;;;;;;16.50;89.30;95225.84;5028505;28;20230;-81
2023/05/25 05:00:24;;;;;;;18.77;11.57;;;;;;;16.62;89.19;95224.06;5013791;28;20226;-82
2023/05/25 05:02:50;;;;;;;25.23;11.10;;;;;;;16.68;88.92;95225.75;5015201;28;20231;-83
2023/05/25 05:05:16;;;;;;;20.30;11.57;;;;;;;16.64;89.85;95225.44;4998004;28;20223;-82
2023/05/25 05:07:41;;;;;;;29.03;12.00;;;;;;;17.07;88.26;95226.91;5000559;28;20235;-83
2023/05/25 05:10:07;;;;;;;22.90;12.53;;;;;;;17.06;87.77;95230.56;5014037;28;20225;-82
2023/05/25 05:12:33;;;;;;;26.50;12.60;;;;;;;17.04;88.13;95228.19;5026511;28;20273;-83
2023/05/25 05:14:58;;;;;;;21.63;12.03;;;;;;;17.01;89.48;95233.91;5019815;28;20233;-83
2023/05/25 05:17:25;;;;;;;23.77;13.17;;;;;;;17.41;87.01;95234.00;5012251;28;20227;-82
2023/05/25 05:19:50;;;;;;;28.57;13.53;;;;;;;18.81;81.01;95233.13;5016609;28;20884;-82
2023/05/25 05:22:16;;;;;;;27.47;13.60;;;;;;;20.71;72.93;95240.09;5015078;28;20230;-83
2023/05/25 05:24:41;;;;;;;25.77;13.23;;;;;;;20.58;72.64;95233.38;5015460;28;20285;-83
2023/05/25 05:27:07;;;;;;;28.43;12.83;;;;;;;20.19;74.45;95239.91;5005681;28;20238;-83
2023/05/25 05:29:33;;;;;;;25.47;13.00;;;;;;;21.15;72.00;95246.84;5011356;28;20243;-83
2023/05/25 05:31:59;;;;;;;32.77;13.17;;;;;;;21.02;70.52;95247.25;5026992;28;20296;-86
2023/05/25 05:34:24;;;;;;;24.40;13.17;;;;;;;19.17;78.18;95249.53;5029282;28;20230;-83
2023/05/25 05:36:50;;;;;;;24.23;13.03;;;;;;;18.57;81.93;95247.56;5000302;28;20250;-85
2023/05/25 05:39:15;;;;;;;26.20;12.93;;;;;;;18.17;84.06;95252.16;4999862;28;20229;-83
2023/05/25 05:41:44;;;;;;;26.10;13.23;;;;;;;18.05;83.99;95249.56;5013418;28;20223;-84
2023/05/25 05:44:10;;;;;;;29.93;13.17;;;;;;;17.93;84.54;95253.31;5016976;28;20246;-86
2023/05/25 05:46:36;;;;;;;25.40;13.30;;;;;;;18.12;85.82;95257.38;4981496;28;20259;-84
2023/05/25 05:49:02;;;;;;;24.40;13.67;;;;;;;18.20;84.25;95258.84;5008609;28;20266;-84
2023/05/25 05:51:28;;;;;;;25.67;13.33;;;;;;;18.01;84.02;95263.50;5014441;28;20976;-85
2023/05/25 05:53:53;;;;;;;23.43;14.13;;;;;;;18.06;83.67;95260.94;5016168;28;20309;-85
2023/05/25 05:56:19;;;;;;;25.73;13.77;;;;;;;17.96;83.37;95258.13;5033943;28;20342;-86
2023/05/25 05:58:47;;;;;;;27.40;13.57;;;;;;;18.28;84.75;95251.28;4997088;28;20234;-84
2023/05/25 06:01:13;;;;;;;27.43;13.30;;;;;;;18.26;82.79;95256.03;5012203;28;20277;-87
2023/05/25 06:03:38;;;;;;;29.27;13.70;;;;;;;18.14;83.50;95250.78;5017167;28;20617;-83
2023/05/25 06:06:04;;;;;;;26.00;13.27;;;;;;;18.25;83.13;95251.75;5032276;28;20714;-85
2023/05/25 06:08:29;;;;;;;29.87;12.87;;;;;;;18.31;84.37;95256.13;4988451;28;20246;-85
2023/05/25 06:10:55;;;;;;;20.47;11.83;;;;;;;18.34;83.95;95254.84;5017151;28;20283;-82
2023/05/25 06:13:21;;;;;;;21.53;12.50;;;;;;;18.39;82.56;95252.28;5025319;28;20231;-82
2023/05/25 06:15:46;;;;;;;23.53;12.10;;;;;;;18.51;81.87;95258.34;5001388;28;20614;-85
2023/05/25 06:18:12;;;;;;;22.50;11.63;;;;;;;18.41;82.75;95256.31;5032328;28;20230;-83
2023/05/25 06:20:37;;;;;;;25.50;11.97;;;;;;;18.57;83.44;95252.06;4985914;28;20223;-84
2023/05/25 06:23:03;;;;;;;20.80;11.97;;;;;;;18.54;83.22;95253.34;4997392;28;20238;-80
2023/05/25 06:25:28;;;;;;;29.20;12.43;;;;;;;18.76;81.74;95253.44;5013498;28;20237;-81
2023/05/25 06:27:54;;;;;;;21.07;11.17;;;;;;;18.84;80.91;95250.38;5001540;28;20225;-79
2023/05/25 06:30:20;;;;;;;21.23;11.07;;;;;;;18.95;81.78;95256.63;5036004;28;20226;-81
2023/05/25 06:32:45;;;;;;;19.93;11.20;;;;;;;18.99;79.97;95260.41;5035626;28;20279;-83
2023/05/25 06:35:18;;;;;;;19.13;11.30;;;;;;;19.05;81.96;95257.59;5033236;28;20267;-81
2023/05/25 06:37:47;;;;;;;35.13;11.20;;;;;;;19.08;80.58;95264.28;5017526;28;20321;-82
2023/05/25 06:40:13;;;;;;;23.10;11.40;;;;;;;18.81;81.27;95258.81;5013934;28;20236;-82
2023/05/25 06:42:39;;;;;;;21.13;11.57;;;;;;;19.08;80.71;95257.09;4992742;28;20270;-82
2023/05/25 06:45:05;;;;;;;17.97;10.20;;;;;;;19.25;81.67;95265.06;4998581;28;20738;-84
2023/05/25 06:47:30;;;;;;;21.13;11.20;;;;;;;19.24;80.04;95261.59;5000931;28;20276;-82
2023/05/25 06:49:57;;;;;;;21.10;11.70;;;;;;;19.29;81.90;95266.16;4998820;28;20258;-83
2023/05/25 06:52:22;;;;;;;19.60;10.70;;;;;;;19.46;81.34;95259.00;4998588;28;20322;-83
2023/05/25 06:54:48;;;;;;;18.97;10.80;;;;;;;19.41;79.70;95264.22;5014170;28;20234;-82
2023/05/25 06:57:13;;;;;;;19.17;10.63;;;;;;;19.62;81.84;95270.59;5016496;28;20258;-84
2023/05/25 06:59:39;;;;;;;18.60;10.33;;;;;;;19.63;79.58;95259.72;5024897;28;20231;-89
2023/05/25 07:02:05;;;;;;;20.07;10.27;;;;;;;19.67;79.82;95262.69;5028191;28;20226;-81
2023/05/25 07:04:31;;;;;;;17.73;10.13;;;;;;;19.82;79.14;95262.88;5024315;28;20234;-87
2023/05/25 07:06:57;;;;;;;18.37;10.07;;;;;;;19.84;78.43;95263.44;5009693;28;20721;-82
2023/05/25 07:09:22;;;;;;;15.60;9.70;;;;;;;19.77;78.79;95260.97;5011762;28;20227;-83
2023/05/25 07:11:48;;;;;;;20.10;9.80;;;;;;;19.90;78.52;95252.63;5014094;28;20223;-87
2023/05/25 07:14:14;;;;;;;16.03;9.37;;;;;;;20.00;79.01;95247.41;4999967;28;20248;-84
2023/05/25 07:16:39;;;;;;;13.97;9.20;;;;;;;19.99;78.21;95251.09;5006974;28;20292;-82
2023/05/25 07:19:05;;;;;;;14.97;8.60;;;;;;;20.10;78.46;95254.69;5012893;28;20230;-83
2023/05/25 07:21:31;;;;;;;13.53;8.37;;;;;;;20.20;78.64;95248.69;4991735;28;20304;-91
2023/05/25 07:23:56;;;;;;;13.80;8.37;;;;;;;20.23;77.71;95249.00;4979980;28;20706;-85
2023/05/25 07:26:22;;;;;;;12.30;8.07;;;;;;;20.40;76.72;95252.34;5011052;28;20272;-84
2023/05/25 07:28:47;;;;;;;11.03;8.00;;;;;;;20.50;76.85;95247.13;4984956;28;20229;-87
2023/05/25 07:31:13;;;;;;;15.70;8.00;;;;;;;20.59;76.83;95250.13;5016142;28;20229;-83
2023/05/25 07:33:38;;;;;;;12.23;7.70;;;;;;;20.50;77.92;95248.97;5030241;28;20284;-84
2023/05/25 07:36:04;;;;;;;15.67;8.37;;;;;;;20.39;77.73;95257.94;5018245;28;20267;-87
2023/05/25 07:38:30;;;;;;;12.20;8.03;;;;;;;20.49;78.75;95258.81;5033589;28;20238;-87
2023/05/25 07:40:55;;;;;;;14.53;7.70;;;;;;;20.54;81.24;95261.53;5040265;28;20218;-85
2023/05/25 07:43:21;;;;;;;11.57;7.43;;;;;;;20.41;79.70;95261.13;5031745;28;20226;-84
2023/05/25 07:45:46;;;;;;;10.73;7.10;;;;;;;20.41;79.07;95256.63;5034817;28;20229;-83
2023/05/25 07:48:11;;;;;;;14.20;7.57;;;;;;;20.29;79.80;95263.16;5035100;28;20225;-85
2023/05/25 07:50:37;;;;;;;10.13;6.50;;;;;;;20.26;79.08;95266.28;5027390;28;20235;-89
2023/05/25 07:53:02;;;;;;;12.03;6.20;;;;;;;20.10;79.36;95268.78;5029491;28;20229;-86
2023/05/25 07:55:28;;;;;;;9.47;5.80;;;;;;;20.09;77.10;95267.16;5024953;28;20237;-83
2023/05/25 07:57:53;;;;;;;10.63;5.53;;;;;;;20.06;76.62;95277.50;5027735;28;20232;-85
2023/05/25 08:00:19;;;;;;;10.97;5.60;;;;;;;19.93;76.86;95283.19;5022158;28;20238;-84
2023/05/25 08:02:45;;;;;;;7.43;5.07;;;;;;;19.81;76.22;95285.19;5039665;28;20850;-87
2023/05/25 08:05:11;;;;;;;8.77;5.10;;;;;;;19.69;77.86;95292.47;5016316;28;20226;-87
2023/05/25 08:07:37;;;;;;;16.00;7.40;;;;;;;19.62;80.81;95297.16;5013177;28;20234;-85
2023/05/25 08:10:02;;;;;;;13.20;8.53;;;;;;;19.43;83.89;95294.81;5039829;28;20230;-86
2023/05/25 08:12:28;;;;;;;18.97;9.57;;;;;;;19.36;84.90;95298.69;5038428;28;20257;-84
2023/05/25 08:14:54;;;;;;;19.73;9.43;;;;;;;19.24;85.38;95301.41;5038017;28;20225;-82
2023/05/25 08:17:20;;;;;;;22.47;10.80;;;;;;;19.13;84.77;95314.78;5028266;28;20241;-87
2023/05/25 08:19:45;;;;;;;15.83;10.10;;;;;;;18.85;85.01;95323.59;5029046;28;20303;-82
2023/05/25 08:22:11;;;;;;;15.23;9.83;;;;;;;18.97;85.35;95319.03;5037784;28;20714;-82
2023/05/25 08:24:36;;;;;;;16.00;10.00;;;;;;;18.78;86.63;95333.56;5033169;28;20253;-85
2023/05/25 08:27:02;;;;;;;14.07;8.80;;;;;;;18.67;87.65;95329.94;5034081;28;20318;-84
2023/05/25 08:29:27;;;;;;;18.07;9.30;;;;;;;18.62;86.99;95332.50;5022747;28;20233;-85
2023/05/25 08:31:53;;;;;;;18.97;8.50;;;;;;;18.56;87.31;95336.09;5034999;28;20222;-86
2023/05/25 08:34:18;;;;;;;13.87;8.17;;;;;;;18.55;88.84;95342.47;5043690;28;20237;-81
2023/05/25 08:36:44;;;;;;;17.30;7.80;;;;;;;18.26;90.86;95342.66;5049630;28;20238;-88
2023/05/25 08:39:10;;;;;;;15.30;7.90;;;;;;;18.24;92.04;95337.63;5035543;28;20230;-81
2023/05/25 08:41:36;;;;;;;16.07;7.33;;;;;;;18.08;92.52;95346.28;5032047;28;20624;-82
2023/05/25 08:44:05;;;;;;;10.77;6.77;;;;;;;17.94;94.16;95343.09;5005538;28;20345;-80
2023/05/25 08:46:31;;;;;;;13.97;7.00;;;;;;;18.05;95.59;95334.34;5035126;28;20287;-80
2023/05/25 08:49:10;;;;;;;9.83;6.30;;;;;;;17.89;95.65;95334.25;5014404;28;20282;-82
2023/05/25 08:51:46;;;;;;;12.87;6.60;;;;;;;17.67;96.10;95335.94;5024497;28;20234;-82
2023/05/25 08:54:12;;;;;;;11.70;6.70;;;;;;;17.69;96.98;95336.50;5045403;28;20256;-82
2023/05/25 08:56:44;;;;;;;11.63;5.93;;;;;;;17.69;96.42;95339.16;5019451;28;20680;-82
2023/05/25 08:59:25;;;;;;;10.00;5.70;;;;;;;17.55;97.11;95345.72;5030073;28;20704;-82
2023/05/25 09:02:21;;;;;;;10.47;5.47;;;;;;;17.40;96.77;95346.97;5014142;28;20816;-83
2023/05/25 09:04:47;;;;;;;10.23;5.57;;;;;;;17.40;98.12;95352.28;5034531;28;20246;-83
2023/05/25 09:07:12;;;;;;;7.53;5.40;;;;;;;17.22;97.95;95352.38;5021748;28;20225;-84
2023/05/25 09:09:38;;;;;;;9.57;5.73;;;;;;;17.29;99.64;95355.69;5036456;28;20221;-84
2023/05/25 09:12:05;;;;;;;8.23;5.33;;;;;;;17.14;99.32;95359.84;5026535;28;20225;-83
2023/05/25 09:14:30;;;;;;;9.13;6.10;;;;;;;17.18;99.84;95361.00;5031426;28;20229;-83
2023/05/25 09:16:57;;;;;;;7.80;5.40;;;;;;;17.17;100.00;95367.34;5022946;28;20218;-84
2023/05/25 09:19:22;;;;;;;9.97;5.63;;;;;;;17.08;100.00;95358.91;5015949;28;20234;-81
2023/05/25 09:21:48;;;;;;;13.10;5.63;;;;;;;17.14;100.00;95352.72;5012825;28;20719;-83
2023/05/25 09:24:14;;;;;;;11.93;6.17;;;;;;;17.07;100.00;95357.31;5036639;28;20726;-83
2023/05/25 09:26:39;;;;;;;8.23;5.70;;;;;;;17.17;100.00;95357.53;5038108;28;20237;-85
2023/05/25 09:29:04;;;;;;;13.40;6.30;;;;;;;17.24;100.00;95349.50;5038673;28;20221;-87
2023/05/25 09:31:30;;;;;;;13.33;6.30;;;;;;;17.37;100.00;95354.56;5033321;28;20237;-88
2023/05/25 09:33:58;;;;;;;12.20;6.10;;;;;;;17.30;100.00;95357.31;5039417;28;20230;-87
2023/05/25 09:36:25;;;;;;;10.53;6.27;;;;;;;17.12;100.00;95352.16;5023379;28;20284;-87
2023/05/25 09:38:53;;;;;;;13.00;6.60;;;;;;;17.26;100.00;95350.09;5017066;28;20223;-86
2023/05/25 09:41:19;;;;;;;10.03;6.17;;;;;;;17.36;100.00;95353.75;5018551;28;20229;-86
2023/05/25 09:43:46;;;;;;;10.53;6.37;;;;;;;17.36;100.00;95351.09;5035041;28;20287;-89
2023/05/25 09:46:11;;;;;;;14.83;7.10;;;;;;;17.47;100.00;95355.59;5044542;28;20248;-86
2023/05/25 09:48:37;;;;;;;13.67;7.10;;;;;;;17.55;100.00;95349.19;5017216;28;20482;-84
2023/05/25 09:51:03;;;;;;;13.43;7.50;;;;;;;17.42;100.00;95350.19;5016118;28;20226;-87
2023/05/25 09:53:28;;;;;;;14.57;7.20;;;;;;;17.44;100.00;95342.81;5019549;28;20702;-86
2023/05/25 09:55:54;;;;;;;14.10;6.90;;;;;;;17.42;100.00;95341.44;5039160;28;20253;-86
2023/05/25 09:58:22;;;;;;;14.50;6.70;;;;;;;17.23;100.00;95343.41;5033697;28;20222;-86
2023/05/25 10:00:47;;;;;;;10.57;7.03;;;;;;;17.34;100.00;95339.13;5026437;28;20236;-84
2023/05/25 10:03:14;;;;;;;13.57;7.13;;;;;;;17.47;100.00;95334.44;5000050;28;20227;-85
2023/05/25 10:05:40;;;;;;;12.90;7.30;;;;;;;17.64;100.00;95331.09;5018491;28;20654;-84
2023/05/25 10:08:05;;;;;;;14.60;8.67;;;;;;;17.80;100.00;95331.16;5037885;28;20232;-85
2023/05/25 10:10:31;;;;;;;14.07;9.00;;;;;;;17.88;100.00;95322.88;5010561;28;20226;-86
2023/05/25 10:12:56;;;;;;;14.73;9.70;;;;;;;18.05;100.00;95325.59;5032435;28;20222;-84
2023/05/25 10:15:22;;;;;;;13.73;9.30;;;;;;;17.97;100.00;95323.31;5033768;28;20226;-84
2023/05/25 10:17:52;;;;;;;11.33;8.03;;;;;;;17.78;100.00;95313.91;5031727;28;20225;-84
2023/05/25 10:20:17;;;;;;;15.53;9.37;;;;;;;17.73;100.00;95314.63;5033316;28;20230;-85
2023/05/25 10:22:50;;;;;;;18.53;10.57;;;;;;;18.04;100.00;95308.06;5005336;28;20619;-86
2023/05/25 10:25:25;;;;;;;15.63;10.20;;;;;;;18.19;100.00;95305.72;5000254;28;20226;-83
2023/05/25 10:28:26;;;;;;;21.10;10.70;;;;;;;18.33;100.00;95304.38;4998859;28;20230;-81
2023/05/25 10:30:51;;;;;;;16.23;10.33;;;;;;;18.29;97.99;95303.25;5019817;28;20233;-83
2023/05/25 10:33:17;;;;;;;18.37;9.67;;;;;;;18.29;98.19;95290.00;4994627;28;20237;-83
2023/05/25 10:35:43;;;;;;;17.40;10.40;;;;;;;18.28;100.00;95280.44;5035143;28;20237;-81
2023/05/25 10:38:09;;;;;;;17.37;10.43;;;;;;;18.31;98.75;95285.28;5027054;28;20237;-83
2023/05/25 10:40:34;;;;;;;17.83;9.83;;;;;;;18.23;100.00;95276.88;5015569;28;20233;-82
2023/05/25 10:43:00;;;;;;;14.20;9.63;;;;;;;18.28;99.11;95279.63;5008733;28;20240;-82
2023/05/25 10:45:25;;;;;;;15.77;8.40;;;;;;;18.35;96.74;95270.50;5010014;28;20236;-81
2023/05/25 10:47:51;;;;;;;11.83;7.47;;;;;;;18.34;94.39;95266.22;5028995;28;20649;-82
2023/05/25 10:50:25;;;;;;;12.83;7.73;;;;;;;18.34;98.38;95266.22;5017441;28;21170;-82
2023/05/25 10:53:14;;;;;;;14.27;6.63;;;;;;;18.31;94.84;95263.25;5024073;28;20306;-80
2023/05/25 10:55:48;;;;;;;11.97;7.43;;;;;;;18.32;100.00;95262.22;5033404;28;20230;-81
2023/05/25 10:58:14;;;;;;;9.53;6.57;;;;;;;18.17;95.07;95255.59;5009502;28;20246;-82
2023/05/25 11:00:40;;;;;;;11.03;7.40;;;;;;;18.24;100.00;95249.34;5003083;28;20242;-82
2023/05/25 11:03:06;;;;;;;8.73;6.17;;;;;;;18.32;95.58;95251.63;5015723;28;20230;-82
2023/05/25 11:05:33;;;;;;;13.33;7.30;;;;;;;18.24;100.00;95252.81;5049002;28;20249;-82
2023/05/25 11:08:01;;;;;;;11.00;6.90;;;;;;;18.25;100.00;95253.59;5023718;28;20230;-82
2023/05/25 11:10:48;;;;;;;14.03;7.50;;;;;;;18.21;100.00;95250.63;5019759;28;20313;-81
2023/05/25 11:13:33;;;;;;;9.70;6.63;;;;;;;18.36;98.38;95253.56;5030749;28;20249;-81
2023/05/25 11:16:34;;;;;;;11.40;6.30;;;;;;;18.38;100.00;95255.97;5032008;28;20288;-81
2023/05/25 11:19:00;;;;;;;10.57;5.80;;;;;;;18.50;96.30;95256.72;5054030;28;20259;-82